Flight Number: EUR1345 Duration: 1:30
Departure: Belfast City (EGAC) at 18:30 Distance: 438 Nm
Arrival: Bruxelles National (EBBR) at 20:00 Equipment: A321

Weather Information
Belfast / Harbour, United Kingdom (EGAC) 54-36N 005-53W 0M Jan 21, 2019 - 07:20 AM EST / 2019.01.21 1220 UTC
Wind: from the S (190 degrees) at 12 MPH (10 KT):0
Visibility: greater than 7 mile(s):0
Sky conditions: mostly cloudy Temperature: 41 F (5 C) Dew Point: 33 F (1 C) Relative Humidity: 75% Pressure (altimeter): 29.94 in. Hg (1014 hPa)
ob: EGAC 211220Z AUTO 19010KT 9999 BKN040/// 05/01 Q1014 cycle: 12
Sunrise: 08:34 Sunset: 16:35 (UTC)

Bruxelles National, Belgium (EBBR) 50-54N 004-32E 58M Jan 21, 2019 - 07:20 AM EST / 2019.01.21 1220 UTC
Wind: Variable at 1 MPH (1 KT):0
Visibility: greater than 7 mile(s):0 Temperature: 37 F (3 C) Dew Point: 26 F (-3 C) Relative Humidity: 64% Pressure (altimeter): 30.21 in. Hg (1023 hPa)
ob: EBBR 211220Z VRB01KT CAVOK 03/M03 Q1023 NOSIG cycle: 12
Sunrise: 07:36 Sunset: 16:10 (UTC)

TAF:2019/01/21 12:28 TAF EBBR 211110Z 2112/2218 VRB03KT CAVOK BECMG 2210/2212 18011KT 4000 -SN BKN006 TEMPO 2212/2215 1200 SN SCT001 BKN002

Previous Pireps for this route
Date Aircraft Flight time Fuel used Landing rate On time
2013-04-03A32101.4110277-104Yes
2013-04-03A3211.4891890No
2013-05-24A32101.4310001-45No
2014-03-05A32102.2216938-637Charter
2014-12-27A32101.1780730Yes
2015-03-30A32101.299448-308Yes
(pireps marked green are flown by you)

Route map